Time;durP1;ratioP1;P1;durP2;ratioP2;P2;SDS_P1;SDS_P2;PMS_P1;PMS_P2;Temp;Humidity;BMP_temperature;BMP_pressure;BME280_temperature;BME280_humidity;BME280_pressure;Samples;Min_cycle;Max_cycle;Signal;HPM_P1;HPM_P2
2022/03/13 00:00:50;;;;;;;19.08;13.50;;;6.60;62.60;;;;;;4915516;29;20028;-43
2022/03/13 00:03:18;;;;;;;17.25;11.80;;;6.60;62.80;;;;;;4915798;29;20116;-47
2022/03/13 00:05:46;;;;;;;15.50;10.02;;;6.50;63.10;;;;;;4914867;29;20031;-45
2022/03/13 00:08:32;;;;;;;17.88;10.70;;;6.50;63.30;;;;;;4914987;29;20092;-46
2022/03/13 00:11:07;;;;;;;22.70;11.05;;;6.40;63.20;;;;;;4912463;29;20058;-45
2022/03/13 00:13:36;;;;;;;21.42;13.65;;;6.40;63.40;;;;;;4914890;29;20047;-44
2022/03/13 00:16:08;;;;;;;20.85;14.07;;;6.30;63.40;;;;;;4915062;29;20017;-47
2022/03/13 00:18:34;;;;;;;21.58;12.23;;;6.30;63.50;;;;;;4914271;29;20024;-43
2022/03/13 00:21:03;;;;;;;19.20;11.40;;;6.30;63.50;;;;;;4923453;29;20024;-45
2022/03/13 00:23:32;;;;;;;13.93;10.45;;;6.30;63.40;;;;;;4924368;29;20480;-44
2022/03/13 00:25:57;;;;;;;17.42;10.95;;;6.30;63.40;;;;;;4916126;29;20470;-42
2022/03/13 00:28:23;;;;;;;21.27;11.90;;;6.30;63.40;;;;;;4914623;29;20066;-45
2022/03/13 00:30:48;;;;;;;17.27;11.32;;;6.30;63.40;;;;;;4915038;29;20104;-43
2022/03/13 00:33:14;;;;;;;14.55;11.23;;;6.30;63.30;;;;;;4915491;29;20503;-45
2022/03/13 00:35:39;;;;;;;22.42;14.68;;;6.30;63.30;;;;;;4914365;29;20036;-43
2022/03/13 00:38:08;;;;;;;17.33;12.40;;;6.30;63.40;;;;;;4914467;29;20024;-42
2022/03/13 00:40:35;;;;;;;21.88;11.40;;;6.20;63.50;;;;;;4940630;29;20092;-44
2022/03/13 00:43:01;;;;;;;17.85;11.77;;;6.20;63.60;;;;;;4914906;29;20036;-46
2022/03/13 00:45:27;;;;;;;15.65;10.90;;;6.20;63.90;;;;;;4913645;29;20103;-44
2022/03/13 00:47:53;;;;;;;19.38;12.40;;;6.10;64.10;;;;;;4914826;29;20134;-46
2022/03/13 00:50:18;;;;;;;28.33;18.33;;;6.10;64.40;;;;;;4916663;29;20036;-40
2022/03/13 00:52:44;;;;;;;24.48;17.02;;;6.00;64.70;;;;;;4916791;29;20076;-44
2022/03/13 00:55:10;;;;;;;36.58;24.80;;;5.90;64.80;;;;;;4917850;29;20020;-47
2022/03/13 00:57:36;;;;;;;36.03;28.08;;;5.90;65.10;;;;;;4916137;29;20076;-47
2022/03/13 01:00:03;;;;;;;27.75;18.55;;;5.80;65.10;;;;;;4916197;29;20096;-44
2022/03/13 01:02:28;;;;;;;28.67;15.38;;;5.80;65.20;;;;;;4916954;29;20415;-41
2022/03/13 01:04:54;;;;;;;24.40;13.32;;;5.80;65.30;;;;;;4917572;29;20028;-45
2022/03/13 01:07:19;;;;;;;19.63;12.95;;;5.70;65.40;;;;;;4915787;29;20090;-40
2022/03/13 01:09:45;;;;;;;18.05;12.40;;;5.70;65.20;;;;;;4914558;29;20036;-44
2022/03/13 01:12:11;;;;;;;23.50;13.18;;;5.70;65.30;;;;;;4914785;29;20028;-44
2022/03/13 01:14:37;;;;;;;22.95;13.35;;;5.60;65.30;;;;;;4914626;29;20116;-44
2022/03/13 01:17:06;;;;;;;18.45;12.30;;;5.60;65.30;;;;;;4914749;29;20100;-42
2022/03/13 01:19:32;;;;;;;24.00;17.58;;;5.60;65.20;;;;;;4914162;29;20036;-44
2022/03/13 01:21:58;;;;;;;24.08;13.48;;;5.60;65.40;;;;;;4918077;29;20032;-42
2022/03/13 01:24:37;;;;;;;24.52;13.15;;;5.60;65.40;;;;;;4920294;29;20372;-46
2022/03/13 01:27:03;;;;;;;21.80;12.98;;;5.60;65.40;;;;;;4916693;29;20024;-42
2022/03/13 01:29:34;;;;;;;18.80;10.43;;;5.50;65.50;;;;;;4917941;29;20047;-39
2022/03/13 01:32:00;;;;;;;17.20;10.18;;;5.50;65.40;;;;;;4918023;29;20032;-41
2022/03/13 01:34:35;;;;;;;20.45;11.52;;;5.50;65.30;;;;;;4917657;29;20024;-43
2022/03/13 01:37:01;;;;;;;20.17;11.30;;;5.50;65.60;;;;;;4917262;29;20028;-41
2022/03/13 01:39:27;;;;;;;18.88;11.60;;;5.50;65.40;;;;;;4916778;29;20500;-40
2022/03/13 01:41:53;;;;;;;17.83;10.95;;;5.50;65.40;;;;;;4916417;29;20377;-39
2022/03/13 01:44:19;;;;;;;20.23;12.23;;;5.50;65.20;;;;;;4917283;29;20028;-40
2022/03/13 01:46:45;;;;;;;19.33;12.93;;;5.50;65.00;;;;;;4917076;29;20024;-46
2022/03/13 01:49:11;;;;;;;18.63;11.05;;;5.50;65.10;;;;;;4916740;29;20028;-48
2022/03/13 01:51:37;;;;;;;20.88;11.63;;;5.40;65.10;;;;;;4915953;29;20038;-47
2022/03/13 01:54:06;;;;;;;19.33;12.45;;;5.50;65.10;;;;;;4917352;29;20063;-40
2022/03/13 01:56:34;;;;;;;17.10;10.85;;;5.40;65.10;;;;;;4916086;29;20024;-44
2022/03/13 01:59:00;;;;;;;18.52;10.52;;;5.50;65.70;;;;;;4916776;29;20056;-44
2022/03/13 02:01:27;;;;;;;20.10;11.23;;;5.40;65.20;;;;;;4948229;29;20082;-40
2022/03/13 02:03:53;;;;;;;19.52;11.60;;;5.40;65.20;;;;;;4917228;29;20028;-41
2022/03/13 02:06:23;;;;;;;19.05;10.85;;;5.30;65.50;;;;;;4915879;29;20119;-43
2022/03/13 02:08:50;;;;;;;18.15;10.00;;;5.30;65.50;;;;;;4914637;29;20016;-46
2022/03/13 02:11:18;;;;;;;15.88;10.85;;;5.20;65.60;;;;;;4917244;29;20036;-48
2022/03/13 02:13:45;;;;;;;20.17;10.10;;;5.20;65.80;;;;;;4918422;29;20035;-47
2022/03/13 02:16:10;;;;;;;17.25;10.52;;;5.10;66.00;;;;;;4916985;29;20028;-39
2022/03/13 02:18:39;;;;;;;16.83;11.18;;;5.10;66.00;;;;;;4916963;29;20031;-44
2022/03/13 02:21:05;;;;;;;16.85;9.95;;;5.10;66.10;;;;;;4916874;29;20107;-41
2022/03/13 02:23:31;;;;;;;19.90;11.95;;;5.10;66.10;;;;;;4917097;29;20062;-44
2022/03/13 02:26:01;;;;;;;17.90;11.20;;;5.10;66.00;;;;;;4916802;29;20480;-44
2022/03/13 02:28:32;;;;;;;22.05;10.32;;;5.00;66.10;;;;;;4916682;29;20032;-45
2022/03/13 02:31:10;;;;;;;18.65;11.30;;;5.00;66.20;;;;;;4916819;29;20090;-43
2022/03/13 02:33:36;;;;;;;17.25;10.75;;;5.00;66.30;;;;;;4914589;29;20491;-44
2022/03/13 02:36:05;;;;;;;19.80;11.50;;;5.00;66.30;;;;;;4916805;29;20075;-39
2022/03/13 02:38:31;;;;;;;15.73;10.85;;;4.90;66.50;;;;;;4915033;29;20028;-49
2022/03/13 02:40:58;;;;;;;19.05;11.63;;;4.90;66.60;;;;;;4915581;29;20534;-49
2022/03/13 02:43:25;;;;;;;23.55;11.18;;;4.90;66.60;;;;;;4947645;29;20044;-44
2022/03/13 02:45:52;;;;;;;18.45;10.57;;;4.80;66.70;;;;;;4916766;29;20036;-44
2022/03/13 02:48:18;;;;;;;20.83;12.52;;;4.80;66.50;;;;;;4916829;29;20032;-42
2022/03/13 02:50:45;;;;;;;16.65;11.02;;;4.80;66.50;;;;;;4947521;29;20484;-46
2022/03/13 02:53:12;;;;;;;22.48;11.18;;;4.80;66.40;;;;;;4917056;29;20074;-45
2022/03/13 02:55:39;;;;;;;19.13;10.55;;;4.80;66.30;;;;;;4915565;29;20407;-40
2022/03/13 02:58:05;;;;;;;16.63;9.95;;;4.90;66.50;;;;;;4916227;29;20035;-41
2022/03/13 03:00:47;;;;;;;19.10;10.75;;;4.80;66.30;;;;;;4916808;29;20126;-44
2022/03/13 03:03:14;;;;;;;22.35;11.25;;;4.80;66.40;;;;;;4917103;29;20024;-44
2022/03/13 03:05:40;;;;;;;18.83;10.45;;;4.70;66.40;;;;;;4947084;28;20130;-49
2022/03/13 03:08:07;;;;;;;16.23;10.50;;;4.70;66.40;;;;;;4916488;29;20103;-44
2022/03/13 03:10:34;;;;;;;18.67;11.15;;;4.70;66.40;;;;;;4916422;29;20087;-42
2022/03/13 03:12:59;;;;;;;15.30;11.18;;;4.70;66.40;;;;;;4917029;29;20028;-44
2022/03/13 03:15:26;;;;;;;15.35;10.63;;;4.70;66.50;;;;;;4915721;29;20031;-44
2022/03/13 03:17:52;;;;;;;16.92;10.38;;;4.70;66.70;;;;;;4916336;29;20024;-44
2022/03/13 03:20:19;;;;;;;13.65;10.27;;;4.60;66.70;;;;;;4916416;29;20016;-43
2022/03/13 03:22:45;;;;;;;15.57;10.48;;;4.60;66.70;;;;;;4916397;29;20020;-39
2022/03/13 03:25:11;;;;;;;18.27;11.18;;;4.60;66.90;;;;;;4916482;29;20027;-45
2022/03/13 03:27:39;;;;;;;14.63;9.93;;;4.50;67.00;;;;;;4918851;29;20302;-50
2022/03/13 03:30:05;;;;;;;15.80;9.85;;;4.50;67.10;;;;;;4918408;29;20217;-45
2022/03/13 03:32:31;;;;;;;16.90;10.27;;;4.50;67.10;;;;;;4916930;29;20060;-44
2022/03/13 03:34:58;;;;;;;19.60;10.15;;;4.50;67.10;;;;;;4922184;29;20040;-45
2022/03/13 03:37:23;;;;;;;15.15;10.18;;;4.50;67.00;;;;;;4924646;29;20040;-45
2022/03/13 03:39:49;;;;;;;17.08;10.18;;;4.40;67.00;;;;;;4915840;29;20028;-44
2022/03/13 03:42:14;;;;;;;15.05;9.27;;;4.40;67.10;;;;;;4915870;29;20047;-45
2022/03/13 03:44:40;;;;;;;16.48;9.75;;;4.40;67.10;;;;;;4916033;29;20391;-44
2022/03/13 03:47:05;;;;;;;17.73;10.45;;;4.40;67.20;;;;;;4915763;29;20103;-40
2022/03/13 03:49:33;;;;;;;14.60;9.85;;;4.30;67.20;;;;;;4915650;29;20107;-45
2022/03/13 03:51:58;;;;;;;15.88;10.80;;;4.30;67.30;;;;;;4916958;29;20032;-45
2022/03/13 03:54:24;;;;;;;19.85;9.77;;;4.30;67.20;;;;;;4916319;29;20110;-41
2022/03/13 03:56:49;;;;;;;14.95;9.38;;;4.30;67.30;;;;;;4916079;29;20111;-44
2022/03/13 03:59:15;;;;;;;16.48;10.70;;;4.30;67.20;;;;;;4915547;29;20379;-44
2022/03/13 04:01:43;;;;;;;17.42;10.88;;;4.30;67.90;;;;;;4915483;29;20028;-46
2022/03/13 04:04:09;;;;;;;18.35;10.27;;;4.30;67.20;;;;;;4915561;29;20086;-39
2022/03/13 04:06:39;;;;;;;18.20;10.43;;;4.30;67.00;;;;;;4915374;29;20032;-47
2022/03/13 04:09:06;;;;;;;14.95;10.52;;;4.30;67.00;;;;;;4915272;29;20051;-45
2022/03/13 04:11:32;;;;;;;14.80;9.13;;;4.30;67.00;;;;;;4915407;29;20056;-44
2022/03/13 04:13:58;;;;;;;15.10;9.65;;;4.20;67.20;;;;;;4915492;29;20063;-47
2022/03/13 04:16:24;;;;;;;14.73;10.00;;;4.20;67.10;;;;;;4915346;29;20106;-46
2022/03/13 04:18:49;;;;;;;20.20;10.00;;;4.20;67.00;;;;;;4915272;29;20052;-43
2022/03/13 04:21:15;;;;;;;14.90;10.07;;;4.20;66.90;;;;;;4915321;29;20099;-39
2022/03/13 04:23:41;;;;;;;16.77;9.80;;;4.20;67.00;;;;;;4915412;29;20531;-44
2022/03/13 04:26:06;;;;;;;20.85;9.50;;;4.20;66.90;;;;;;4915310;29;20050;-47
2022/03/13 04:28:33;;;;;;;16.70;10.50;;;4.20;66.80;;;;;;4915007;29;20500;-44
2022/03/13 04:30:59;;;;;;;16.85;9.73;;;4.20;67.00;;;;;;4915200;29;20032;-44
2022/03/13 04:33:26;;;;;;;14.50;9.60;;;4.10;67.10;;;;;;4913764;29;20028;-40
2022/03/13 04:35:54;;;;;;;18.85;10.38;;;4.10;67.10;;;;;;4913891;29;20484;-43
2022/03/13 04:38:20;;;;;;;16.83;11.07;;;4.10;66.90;;;;;;4915007;29;20040;-46
2022/03/13 04:40:45;;;;;;;15.88;9.55;;;4.10;67.10;;;;;;4915026;29;20052;-45
2022/03/13 04:43:11;;;;;;;15.70;9.57;;;4.10;67.10;;;;;;4915161;29;20064;-48
2022/03/13 04:45:37;;;;;;;14.73;9.23;;;4.00;67.20;;;;;;4915187;29;20036;-45
2022/03/13 04:48:02;;;;;;;17.05;9.70;;;4.00;67.30;;;;;;4914750;29;20036;-44
2022/03/13 04:50:28;;;;;;;15.98;9.43;;;3.90;67.20;;;;;;4915211;29;20039;-44
2022/03/13 04:52:54;;;;;;;14.15;9.60;;;3.90;67.30;;;;;;4914957;29;20032;-45
2022/03/13 04:55:19;;;;;;;12.32;9.65;;;3.90;67.30;;;;;;4915518;29;20079;-44
2022/03/13 04:57:45;;;;;;;12.57;9.25;;;3.90;67.20;;;;;;4917165;29;20028;-40
2022/03/13 05:00:11;;;;;;;14.80;9.82;;;3.80;67.30;;;;;;4919276;29;20371;-44
2022/03/13 05:02:37;;;;;;;16.13;9.90;;;3.80;67.60;;;;;;4918613;29;20036;-44
2022/03/13 05:05:04;;;;;;;14.00;9.27;;;3.80;67.60;;;;;;4918665;29;20024;-45
2022/03/13 05:07:30;;;;;;;15.30;9.40;;;3.80;67.70;;;;;;4918486;29;20080;-47
2022/03/13 05:09:55;;;;;;;19.58;9.95;;;3.70;67.90;;;;;;4918795;29;20032;-39
2022/03/13 05:12:27;;;;;;;15.68;9.73;;;3.60;68.30;;;;;;4918400;29;20039;-46
2022/03/13 05:14:53;;;;;;;21.50;10.27;;;3.60;68.30;;;;;;4918685;29;20047;-45
2022/03/13 05:17:18;;;;;;;16.45;10.48;;;3.60;68.30;;;;;;4918080;29;20024;-44
2022/03/13 05:19:44;;;;;;;13.95;9.38;;;3.60;68.50;;;;;;4918546;29;20033;-43
2022/03/13 05:22:10;;;;;;;16.20;10.23;;;3.60;68.50;;;;;;4918355;29;20599;-39
2022/03/13 05:24:36;;;;;;;11.43;8.93;;;3.50;68.70;;;;;;4918615;29;20094;-49
2022/03/13 05:27:01;;;;;;;17.50;11.15;;;3.50;68.90;;;;;;4918362;29;20551;-46
2022/03/13 05:29:27;;;;;;;14.80;9.63;;;3.40;69.00;;;;;;4916757;29;20067;-40
2022/03/13 05:31:52;;;;;;;17.02;9.93;;;3.40;69.10;;;;;;4918061;29;20024;-40
2022/03/13 05:34:18;;;;;;;14.60;10.52;;;3.40;69.10;;;;;;4918105;29;20039;-46
2022/03/13 05:36:43;;;;;;;20.80;9.25;;;3.40;69.30;;;;;;4918128;29;20043;-43
2022/03/13 05:39:09;;;;;;;15.27;9.98;;;3.40;69.20;;;;;;4917730;29;20035;-46
2022/03/13 05:41:39;;;;;;;17.08;9.88;;;3.30;69.40;;;;;;4948129;29;20032;-40
2022/03/13 05:44:08;;;;;;;17.73;9.75;;;3.30;69.20;;;;;;4917990;29;20028;-40
2022/03/13 05:46:34;;;;;;;16.63;9.30;;;3.30;69.20;;;;;;4918010;29;20024;-45
2022/03/13 05:49:00;;;;;;;14.27;9.52;;;3.30;69.20;;;;;;4917800;29;20167;-47
2022/03/13 05:51:25;;;;;;;16.17;10.00;;;3.40;69.30;;;;;;4917999;29;20107;-44
2022/03/13 05:53:51;;;;;;;14.15;9.30;;;3.30;69.00;;;;;;4948230;28;20036;-48
2022/03/13 05:56:16;;;;;;;15.15;10.13;;;3.30;69.50;;;;;;4917772;29;20035;-47
2022/03/13 05:58:42;;;;;;;15.60;9.68;;;3.30;69.50;;;;;;4917408;29;20115;-44
2022/03/13 06:01:09;;;;;;;11.10;8.13;;;3.30;69.40;;;;;;4918068;29;20479;-44
2022/03/13 06:03:34;;;;;;;16.20;10.05;;;3.40;69.10;;;;;;4918103;29;20540;-40
2022/03/13 06:06:02;;;;;;;16.17;10.98;;;3.40;69.10;;;;;;4948450;29;20032;-44
2022/03/13 06:08:27;;;;;;;15.38;9.45;;;3.40;68.80;;;;;;4916241;29;20032;-42
2022/03/13 06:10:53;;;;;;;21.40;9.57;;;3.40;68.60;;;;;;4917570;29;20036;-39
2022/03/13 06:13:22;;;;;;;15.80;10.23;;;3.40;68.80;;;;;;4917665;29;20669;-46
2022/03/13 06:15:48;;;;;;;14.75;9.35;;;3.50;68.50;;;;;;4917738;29;20028;-44
2022/03/13 06:18:13;;;;;;;13.15;9.20;;;3.60;68.10;;;;;;4917942;29;20024;-45
2022/03/13 06:20:39;;;;;;;15.82;9.35;;;3.60;67.70;;;;;;4918148;29;20071;-41
2022/03/13 06:23:05;;;;;;;17.55;8.93;;;3.70;67.90;;;;;;4917349;29;20499;-40
2022/03/13 06:25:31;;;;;;;16.30;9.35;;;3.70;67.80;;;;;;4917703;29;20052;-47
2022/03/13 06:27:57;;;;;;;15.00;8.63;;;3.90;67.30;;;;;;4916940;29;20040;-46
2022/03/13 06:30:23;;;;;;;13.77;10.05;;;4.10;66.60;;;;;;4917410;29;20080;-49
2022/03/13 06:32:53;;;;;;;12.57;9.00;;;4.30;65.80;;;;;;4917164;29;20028;-48
2022/03/13 06:35:21;;;;;;;18.55;9.93;;;4.50;65.00;;;;;;4917426;29;20392;-47
2022/03/13 06:37:48;;;;;;;18.08;9.68;;;4.60;65.30;;;;;;4916949;29;20028;-45
2022/03/13 06:40:17;;;;;;;13.73;8.68;;;4.50;65.10;;;;;;4917090;29;20036;-41
2022/03/13 06:42:43;;;;;;;18.15;9.18;;;4.40;65.10;;;;;;4917078;29;20028;-49
2022/03/13 06:45:12;;;;;;;15.60;10.15;;;4.50;65.30;;;;;;4917132;29;20036;-44
2022/03/13 06:47:41;;;;;;;13.60;8.77;;;4.60;65.10;;;;;;4916656;29;20103;-47
2022/03/13 06:50:08;;;;;;;14.43;9.13;;;4.70;64.80;;;;;;4917224;29;20407;-44
2022/03/13 06:52:34;;;;;;;13.45;9.50;;;4.80;63.80;;;;;;4915783;29;20028;-40
2022/03/13 06:55:00;;;;;;;13.05;8.80;;;4.80;63.80;;;;;;4916817;29;20055;-47
2022/03/13 06:57:26;;;;;;;15.05;9.73;;;4.90;63.60;;;;;;4915625;29;20520;-47
2022/03/13 06:59:51;;;;;;;14.38;9.27;;;4.90;63.20;;;;;;4917118;29;20038;-44
2022/03/13 07:02:17;;;;;;;16.55;8.90;;;5.00;62.90;;;;;;4916680;29;20039;-47
2022/03/13 07:04:42;;;;;;;13.85;9.50;;;5.20;62.70;;;;;;4916774;29;20510;-44
2022/03/13 07:07:08;;;;;;;14.55;8.82;;;5.30;62.20;;;;;;4916652;29;20123;-44
2022/03/13 07:09:33;;;;;;;12.27;9.00;;;5.40;62.30;;;;;;4917354;29;20107;-45
2022/03/13 07:11:59;;;;;;;14.88;9.02;;;5.70;61.20;;;;;;4918049;29;20168;-45
2022/03/13 07:14:24;;;;;;;16.35;9.15;;;5.80;61.00;;;;;;4918506;29;20569;-46
2022/03/13 07:16:51;;;;;;;14.63;8.30;;;6.10;60.20;;;;;;4916587;29;20032;-44
2022/03/13 07:19:17;;;;;;;14.07;8.55;;;6.30;60.10;;;;;;4917575;29;20147;-46
2022/03/13 07:21:43;;;;;;;16.63;8.85;;;6.40;59.20;;;;;;4916460;29;20487;-46
2022/03/13 07:24:10;;;;;;;14.70;9.05;;;6.70;59.10;;;;;;4916487;29;20087;-44
2022/03/13 07:26:35;;;;;;;13.02;8.30;;;7.00;58.20;;;;;;4916466;29;20040;-46
2022/03/13 07:29:01;;;;;;;15.68;8.52;;;7.20;57.50;;;;;;4946608;29;20079;-41
2022/03/13 07:31:30;;;;;;;13.40;7.32;;;7.40;56.60;;;;;;4916170;29;20032;-47
2022/03/13 07:33:56;;;;;;;12.63;7.90;;;7.60;56.70;;;;;;4916523;29;20043;-49
2022/03/13 07:36:22;;;;;;;15.68;8.73;;;7.80;56.80;;;;;;4916136;29;20147;-49
2022/03/13 07:38:47;;;;;;;12.10;7.70;;;8.10;56.50;;;;;;4915769;29;20028;-44
2022/03/13 07:41:13;;;;;;;10.88;7.35;;;8.60;55.10;;;;;;4916138;29;20028;-40
2022/03/13 07:43:38;;;;;;;12.95;8.85;;;8.90;54.70;;;;;;4916222;29;20055;-45
2022/03/13 07:46:04;;;;;;;15.30;7.68;;;9.20;53.90;;;;;;4915848;29;20598;-43
2022/03/13 07:48:29;;;;;;;10.98;8.05;;;9.50;53.60;;;;;;4916016;29;20157;-45
2022/03/13 07:50:57;;;;;;;14.60;8.13;;;9.70;52.90;;;;;;4914660;29;20507;-46
2022/03/13 07:53:26;;;;;;;14.82;8.40;;;9.80;53.00;;;;;;4915843;29;20020;-45
2022/03/13 07:55:52;;;;;;;10.38;7.22;;;9.20;53.60;;;;;;4915788;29;20380;-44
2022/03/13 07:58:18;;;;;;;16.90;8.88;;;8.90;54.80;;;;;;4915448;29;20080;-47
2022/03/13 08:00:43;;;;;;;16.30;8.85;;;8.50;55.10;;;;;;4915524;29;20024;-45
2022/03/13 08:03:09;;;;;;;10.88;8.20;;;8.10;55.60;;;;;;4946280;29;20028;-41
2022/03/13 08:05:35;;;;;;;14.35;8.40;;;7.60;56.40;;;;;;4915493;29;20032;-43
2022/03/13 08:08:00;;;;;;;15.25;9.15;;;7.40;57.00;;;;;;4915322;29;20028;-43
2022/03/13 08:10:27;;;;;;;11.68;8.50;;;7.30;57.70;;;;;;4915497;29;20067;-44
2022/03/13 08:12:53;;;;;;;10.35;7.57;;;7.30;57.90;;;;;;4940221;23;20062;-43
2022/03/13 08:15:20;;;;;;;13.13;8.35;;;7.20;58.00;;;;;;4912268;29;20064;-45
2022/03/13 08:17:45;;;;;;;10.10;7.45;;;7.20;57.30;;;;;;4915561;29;20434;-48
2022/03/13 08:20:11;;;;;;;12.77;8.63;;;7.30;57.20;;;;;;4916893;29;20059;-49
2022/03/13 08:22:37;;;;;;;14.63;8.77;;;7.20;57.30;;;;;;4915057;29;20025;-48
2022/03/13 08:25:03;;;;;;;14.60;8.25;;;7.10;57.70;;;;;;4916515;29;20032;-47
2022/03/13 08:27:29;;;;;;;11.82;8.45;;;7.10;57.50;;;;;;4915960;29;20035;-47
2022/03/13 08:29:54;;;;;;;10.70;7.88;;;7.10;58.10;;;;;;4915468;29;20064;-47
2022/03/13 08:32:20;;;;;;;20.10;7.82;;;7.20;58.30;;;;;;4915639;29;20036;-50
2022/03/13 08:34:48;;;;;;;11.30;8.18;;;7.30;57.80;;;;;;4915638;29;20292;-50
2022/03/13 08:37:15;;;;;;;15.75;8.15;;;7.30;57.50;;;;;;4914377;29;20100;-44
2022/03/13 08:39:41;;;;;;;11.35;7.70;;;7.40;57.50;;;;;;4915208;29;20396;-49
2022/03/13 08:42:07;;;;;;;12.27;8.52;;;7.50;57.20;;;;;;4914896;29;20024;-53
2022/03/13 08:44:32;;;;;;;12.13;7.35;;;7.50;57.70;;;;;;4914441;29;20591;-47
2022/03/13 08:46:58;;;;;;;11.40;7.95;;;7.50;57.20;;;;;;4915541;29;20024;-47
2022/03/13 08:49:24;;;;;;;14.85;8.02;;;7.50;57.00;;;;;;4913987;29;20036;-47
2022/03/13 08:51:49;;;;;;;23.25;8.10;;;7.50;57.00;;;;;;4915594;29;20036;-49
2022/03/13 08:54:16;;;;;;;11.27;8.70;;;7.60;56.60;;;;;;4913859;29;20082;-48
2022/03/13 08:56:42;;;;;;;13.27;7.53;;;7.60;56.60;;;;;;4915440;29;20440;-52
2022/03/13 08:59:08;;;;;;;14.65;7.97;;;7.60;56.90;;;;;;4913749;29;20032;-51
2022/03/13 09:01:34;;;;;;;13.30;7.70;;;7.70;56.60;;;;;;4913846;29;20020;-53
2022/03/13 09:03:59;;;;;;;10.80;7.88;;;7.70;56.80;;;;;;4915197;29;20059;-47
2022/03/13 09:06:25;;;;;;;14.88;8.13;;;7.60;55.90;;;;;;4914975;29;20474;-50
2022/03/13 09:08:50;;;;;;;12.23;7.28;;;7.70;56.30;;;;;;4914893;29;20102;-53
2022/03/13 09:11:17;;;;;;;10.65;7.25;;;7.70;56.40;;;;;;4915225;29;20028;-46
2022/03/13 09:13:43;;;;;;;10.55;7.45;;;7.80;56.60;;;;;;4914738;29;20035;-49
2022/03/13 09:16:08;;;;;;;8.93;7.68;;;8.10;56.50;;;;;;4915034;29;20043;-49
2022/03/13 09:18:34;;;;;;;13.25;8.13;;;8.30;55.70;;;;;;4914925;29;20488;-47
2022/03/13 09:21:00;;;;;;;14.48;8.18;;;9.20;54.30;;;;;;4915288;29;20029;-47
2022/03/13 09:23:27;;;;;;;10.82;7.72;;;10.20;53.30;;;;;;4914936;29;20036;-47
2022/03/13 09:25:53;;;;;;;12.35;7.65;;;11.20;51.40;;;;;;4915221;29;20039;-47
2022/03/13 09:28:20;;;;;;;9.68;7.10;;;11.70;50.60;;;;;;4914730;29;20440;-52
2022/03/13 09:30:46;;;;;;;12.10;8.00;;;12.10;50.20;;;;;;4915035;29;20036;-49
2022/03/13 09:33:12;;;;;;;11.82;7.78;;;12.90;49.30;;;;;;4915013;29;20396;-51
2022/03/13 09:35:38;;;;;;;11.25;7.47;;;13.70;48.90;;;;;;4914900;29;20020;-51
2022/03/13 09:38:04;;;;;;;9.70;8.05;;;14.00;46.90;;;;;;4914782;29;20055;-50
2022/03/13 09:40:30;;;;;;;10.15;7.75;;;14.10;47.40;;;;;;4914391;29;20028;-51
2022/03/13 09:42:55;;;;;;;11.00;8.10;;;14.60;46.80;;;;;;4917402;29;20171;-48
2022/03/13 09:45:21;;;;;;;10.77;8.57;;;14.80;46.10;;;;;;4917894;29;20035;-49
2022/03/13 09:47:48;;;;;;;8.40;7.05;;;15.00;45.60;;;;;;4917758;29;20028;-47
2022/03/13 09:50:14;;;;;;;10.18;8.63;;;14.80;45.70;;;;;;4918215;29;20031;-50
2022/03/13 09:52:43;;;;;;;12.88;8.02;;;14.40;46.10;;;;;;4918431;29;20036;-48
2022/03/13 09:55:10;;;;;;;10.10;8.30;;;14.10;46.30;;;;;;4916993;29;20048;-49
2022/03/13 09:57:36;;;;;;;9.25;7.85;;;14.00;46.00;;;;;;4917642;29;20020;-47
2022/03/13 10:00:05;;;;;;;10.00;7.65;;;13.80;46.60;;;;;;4917689;29;20111;-51
2022/03/13 10:02:35;;;;;;;10.50;7.57;;;13.40;46.80;;;;;;4917838;29;20062;-49
2022/03/13 10:05:08;;;;;;;12.20;8.27;;;13.30;47.70;;;;;;4917849;29;20024;-46
2022/03/13 10:07:52;;;;;;;10.98;7.90;;;13.30;47.50;;;;;;4916467;29;20048;-47
2022/03/13 10:10:18;;;;;;;8.90;6.93;;;13.30;48.10;;;;;;4918292;29;20020;-48
2022/03/13 10:12:44;;;;;;;11.45;8.32;;;13.20;47.70;;;;;;4918037;29;20032;-48
2022/03/13 10:15:11;;;;;;;8.48;6.90;;;12.90;47.80;;;;;;4917810;29;20064;-48
2022/03/13 10:17:38;;;;;;;12.80;8.95;;;12.80;48.10;;;;;;4917443;29;20028;-47
2022/03/13 10:20:24;;;;;;;9.60;7.47;;;12.70;47.90;;;;;;4917882;29;20027;-49
2022/03/13 10:23:02;;;;;;;11.20;8.18;;;12.90;48.00;;;;;;4917791;29;20028;-52
2022/03/13 10:25:33;;;;;;;9.70;8.52;;;13.30;48.30;;;;;;4917559;29;20060;-50
2022/03/13 10:28:14;;;;;;;13.65;8.75;;;13.50;48.10;;;;;;4917538;29;20047;-49
2022/03/13 10:30:45;;;;;;;12.88;8.40;;;13.60;47.40;;;;;;4917579;29;20024;-49
2022/03/13 10:33:11;;;;;;;10.48;8.07;;;13.60;47.30;;;;;;4917665;29;20035;-50
2022/03/13 10:35:37;;;;;;;12.23;8.32;;;13.20;47.40;;;;;;4917554;29;20028;-48
2022/03/13 10:38:19;;;;;;;12.15;8.27;;;12.90;47.50;;;;;;4917893;29;20057;-50
2022/03/13 10:40:49;;;;;;;11.98;8.20;;;13.10;48.00;;;;;;4918087;29;20040;-53
2022/03/13 10:43:19;;;;;;;10.52;8.02;;;13.00;48.30;;;;;;4918223;29;20168;-52
2022/03/13 10:45:54;;;;;;;12.65;8.80;;;12.70;48.90;;;;;;4917614;29;20400;-51
2022/03/13 10:48:28;;;;;;;11.93;8.80;;;12.40;48.90;;;;;;4917474;29;20464;-49
2022/03/13 10:50:57;;;;;;;11.65;7.97;;;12.40;49.80;;;;;;4917892;29;20027;-46
2022/03/13 10:53:24;;;;;;;13.30;8.75;;;12.40;49.30;;;;;;4917329;29;20042;-50
2022/03/13 10:56:11;;;;;;;11.98;9.00;;;12.40;49.40;;;;;;4918354;29;20024;-53
2022/03/13 10:58:45;;;;;;;10.20;7.95;;;12.40;49.60;;;;;;4918793;29;20459;-46
2022/03/13 11:01:13;;;;;;;16.58;8.63;;;12.20;49.90;;;;;;4923923;29;20028;-52
2022/03/13 11:03:55;;;;;;;17.58;9.02;;;12.30;50.00;;;;;;4927540;29;20020;-46
2022/03/13 11:06:23;;;;;;;20.42;13.55;;;12.30;50.10;;;;;;4927232;29;20064;-46
2022/03/13 11:08:53;;;;;;;13.20;8.50;;;12.30;50.10;;;;;;4927669;29;20028;-50
2022/03/13 11:11:19;;;;;;;12.65;8.32;;;12.30;50.20;;;;;;4927258;29;20391;-48
2022/03/13 11:13:52;;;;;;;14.45;8.68;;;12.20;50.00;;;;;;4923776;29;20036;-54
2022/03/13 11:16:26;;;;;;;10.60;8.35;;;12.10;50.10;;;;;;4918098;29;20016;-45
2022/03/13 11:18:55;;;;;;;14.85;7.93;;;12.00;50.00;;;;;;4917279;29;20055;-51
2022/03/13 11:21:22;;;;;;;12.40;9.48;;;11.90;50.40;;;;;;4917235;29;20028;-50
2022/03/13 11:23:49;;;;;;;13.15;9.00;;;11.80;50.40;;;;;;4917222;29;20028;-48
2022/03/13 11:26:16;;;;;;;15.07;8.70;;;11.80;50.60;;;;;;4916653;29;20025;-45
2022/03/13 11:28:44;;;;;;;14.35;8.77;;;11.80;51.10;;;;;;4916435;29;20032;-47
2022/03/13 11:31:40;;;;;;;11.27;8.25;;;12.00;50.40;;;;;;4916907;29;20083;-48
2022/03/13 11:34:18;;;;;;;14.07;8.32;;;12.00;50.60;;;;;;4915893;29;20575;-45
2022/03/13 11:36:48;;;;;;;14.07;9.20;;;12.00;50.30;;;;;;4915306;29;20563;-53
2022/03/13 11:39:25;;;;;;;13.90;8.50;;;12.00;50.40;;;;;;4914171;29;20024;-51
2022/03/13 11:41:50;;;;;;;13.98;8.85;;;12.10;50.60;;;;;;4916634;29;20024;-46
2022/03/13 11:44:20;;;;;;;14.07;9.07;;;12.20;51.00;;;;;;4915674;29;20079;-48
2022/03/13 11:46:48;;;;;;;17.88;10.13;;;12.20;50.50;;;;;;4915793;29;20107;-53
2022/03/13 11:49:33;;;;;;;12.98;9.68;;;12.20;50.40;;;;;;4916025;29;20028;-47
2022/03/13 11:52:11;;;;;;;13.27;8.75;;;12.30;50.00;;;;;;4917865;29;20030;-49
2022/03/13 11:54:56;;;;;;;12.90;8.85;;;12.20;50.30;;;;;;4916076;29;20119;-52
2022/03/13 11:57:24;;;;;;;13.23;9.07;;;12.20;50.30;;;;;;4915338;29;20028;-47
2022/03/13 12:00:28;;;;;;;11.48;9.13;;;12.20;51.10;;;;;;4915730;29;20118;-44
2022/03/13 12:03:06;;;;;;;12.90;9.13;;;12.20;50.00;;;;;;4913124;29;20028;-50
2022/03/13 12:05:33;;;;;;;14.82;9.63;;;12.20;50.50;;;;;;4914798;29;20481;-50
2022/03/13 12:08:12;;;;;;;13.35;9.32;;;12.30;50.50;;;;;;4915213;29;20095;-46
2022/03/13 12:10:42;;;;;;;12.18;9.35;;;12.40;50.90;;;;;;4915342;29;20103;-52
2022/03/13 12:13:10;;;;;;;17.40;9.60;;;12.50;50.50;;;;;;4915296;29;20040;-48
2022/03/13 12:15:37;;;;;;;18.70;12.32;;;12.60;50.70;;;;;;4915620;29;20400;-48
2022/03/13 12:18:21;;;;;;;17.13;9.68;;;12.60;50.90;;;;;;4914983;29;20103;-52
2022/03/13 12:20:49;;;;;;;13.57;8.90;;;12.60;50.50;;;;;;4915337;29;20042;-49
2022/03/13 12:23:31;;;;;;;16.58;9.43;;;12.70;50.70;;;;;;4915441;29;20403;-46
2022/03/13 12:26:13;;;;;;;12.73;9.50;;;12.70;50.90;;;;;;4914607;29;20115;-49
2022/03/13 12:28:39;;;;;;;14.15;9.85;;;12.60;51.10;;;;;;4914918;29;20407;-47
2022/03/13 12:31:05;;;;;;;14.05;9.57;;;12.60;50.60;;;;;;4915894;29;20133;-47
2022/03/13 12:33:32;;;;;;;14.18;10.13;;;12.60;50.80;;;;;;4915619;29;20032;-46
2022/03/13 12:35:59;;;;;;;13.18;9.80;;;12.70;51.00;;;;;;4915345;29;20040;-48
2022/03/13 12:38:32;;;;;;;15.23;10.00;;;12.70;50.90;;;;;;4915125;29;20024;-49
2022/03/13 12:41:01;;;;;;;14.55;9.02;;;12.80;51.00;;;;;;4915086;29;20503;-48
2022/03/13 12:43:53;;;;;;;13.05;9.68;;;13.00;51.10;;;;;;4915256;29;20491;-46